Time;durP1;ratioP1;P1;durP2;ratioP2;P2;SDS_P1;SDS_P2;PMS_P1;PMS_P2;Temp;Humidity;BMP_temperature;BMP_pressure;BME280_temperature;BME280_humidity;BME280_pressure;Samples;Min_cycle;Max_cycle;Signal;HPM_P1;HPM_P2
2022/11/30 00:00:17;;;;;;;18.05;11.85;;;6.90;99.90;;;;;;5116508;27;20396;-68
2022/11/30 00:02:43;;;;;;;20.25;13.30;;;6.80;99.90;;;;;;5116112;27;20039;-67
2022/11/30 00:05:09;;;;;;;16.92;12.80;;;6.80;99.90;;;;;;5116217;27;20512;-67
2022/11/30 00:07:35;;;;;;;16.75;11.82;;;6.70;99.90;;;;;;5115961;27;20050;-67
2022/11/30 00:10:00;;;;;;;16.52;11.85;;;6.70;99.90;;;;;;5115102;27;20394;-68
2022/11/30 00:12:27;;;;;;;15.07;10.77;;;6.50;99.90;;;;;;5116249;27;20027;-67
2022/11/30 00:14:53;;;;;;;15.80;11.70;;;6.50;99.90;;;;;;5116461;27;20393;-66
2022/11/30 00:17:19;;;;;;;13.35;9.18;;;6.40;99.90;;;;;;5116336;27;20039;-67
2022/11/30 00:19:44;;;;;;;12.10;9.30;;;6.40;99.90;;;;;;5115405;27;20456;-67
2022/11/30 00:22:10;;;;;;;13.27;9.98;;;6.30;99.90;;;;;;5116140;27;20039;-66
2022/11/30 00:24:36;;;;;;;14.63;10.60;;;6.30;99.90;;;;;;5115804;27;20043;-67
2022/11/30 00:27:01;;;;;;;15.30;11.38;;;6.20;99.90;;;;;;5115900;27;20389;-66
2022/11/30 00:29:27;;;;;;;14.77;11.35;;;6.10;99.90;;;;;;5115684;27;20039;-67
2022/11/30 00:31:52;;;;;;;17.17;12.32;;;6.00;99.90;;;;;;5115556;27;20038;-68
2022/11/30 00:34:18;;;;;;;186.18;14.48;;;6.00;99.90;;;;;;5116017;27;20402;-66
2022/11/30 00:36:44;;;;;;;32.78;7.32;;;5.90;99.90;;;;;;5098014;27;20047;-66
2022/11/30 00:39:09;;;;;;;121.15;9.20;;;5.90;99.90;;;;;;5115363;27;20126;-66
2022/11/30 00:41:35;;;;;;;120.07;7.68;;;5.80;99.90;;;;;;5115592;27;20039;-67
2022/11/30 00:44:01;;;;;;;274.10;11.68;;;5.70;99.90;;;;;;5115496;27;20393;-67
2022/11/30 00:46:26;;;;;;;154.65;8.30;;;5.40;99.90;;;;;;5115750;27;20043;-66
2022/11/30 00:48:52;;;;;;;75.38;7.22;;;5.20;99.90;;;;;;5118401;27;20051;-66
2022/11/30 00:51:19;;;;;;;55.13;5.70;;;5.20;99.90;;;;;;5113185;27;20110;-67
2022/11/30 00:53:46;;;;;;;61.92;6.30;;;5.10;99.90;;;;;;5131394;27;20078;-67
2022/11/30 00:56:12;;;;;;;25.88;5.53;;;5.10;99.90;;;;;;5112514;27;20096;-66
2022/11/30 00:58:39;;;;;;;29.98;6.13;;;5.10;99.90;;;;;;5110941;27;20044;-66
2022/11/30 01:01:05;;;;;;;21.23;6.10;;;5.00;99.90;;;;;;5132514;27;20039;-66
2022/11/30 01:03:32;;;;;;;25.58;6.90;;;5.00;99.90;;;;;;5114586;27;20127;-67
2022/11/30 01:06:05;;;;;;;54.42;7.22;;;5.00;99.90;;;;;;5114778;27;20080;-66
2022/11/30 01:08:31;;;;;;;19.48;7.30;;;4.90;99.90;;;;;;5114788;27;20035;-66
2022/11/30 01:11:07;;;;;;;24.92;8.65;;;4.90;99.90;;;;;;5097323;27;20103;-66
2022/11/30 01:13:33;;;;;;;12.98;8.50;;;4.90;99.90;;;;;;5110061;27;20054;-67
2022/11/30 01:15:59;;;;;;;22.55;8.55;;;4.90;99.90;;;;;;5130073;27;20474;-67
2022/11/30 01:18:25;;;;;;;31.05;9.45;;;4.90;99.90;;;;;;5093512;27;20051;-66
2022/11/30 01:20:50;;;;;;;19.67;9.93;;;4.80;99.90;;;;;;5114292;27;20458;-67
2022/11/30 01:23:16;;;;;;;19.35;11.55;;;4.90;99.90;;;;;;5113691;27;20039;-67
2022/11/30 01:25:51;;;;;;;17.48;10.98;;;4.90;99.90;;;;;;5097753;27;20043;-67
2022/11/30 01:28:17;;;;;;;15.48;11.25;;;4.90;99.90;;;;;;5096283;27;20027;-68
2022/11/30 01:30:43;;;;;;;15.38;12.13;;;4.90;99.90;;;;;;5114560;27;20467;-67
2022/11/30 01:33:08;;;;;;;15.60;12.43;;;4.90;99.90;;;;;;5114558;27;20091;-67
2022/11/30 01:35:34;;;;;;;17.67;12.63;;;4.90;99.90;;;;;;5132581;27;20413;-66
2022/11/30 01:37:59;;;;;;;17.48;13.25;;;4.90;99.90;;;;;;5114459;27;20050;-67
2022/11/30 01:40:25;;;;;;;16.45;12.90;;;5.00;99.90;;;;;;5114370;27;20146;-66
2022/11/30 01:42:51;;;;;;;18.00;13.88;;;5.00;99.90;;;;;;5114537;27;20043;-67
2022/11/30 01:45:16;;;;;;;18.45;13.93;;;5.10;99.90;;;;;;5096737;27;20180;-66
2022/11/30 01:47:50;;;;;;;19.20;14.52;;;5.10;99.90;;;;;;5114535;27;20039;-66
2022/11/30 01:50:22;;;;;;;18.17;14.13;;;5.10;99.90;;;;;;5114061;27;20039;-67
2022/11/30 01:52:51;;;;;;;21.52;14.82;;;5.10;99.90;;;;;;5114122;27;20035;-66
2022/11/30 01:55:28;;;;;;;19.85;14.95;;;5.20;99.90;;;;;;5113921;27;20031;-66
2022/11/30 01:58:04;;;;;;;22.92;16.42;;;5.20;99.90;;;;;;5114301;27;20041;-66
2022/11/30 02:00:30;;;;;;;22.70;15.70;;;5.30;99.90;;;;;;5114030;27;20047;-66
2022/11/30 02:03:13;;;;;;;21.75;16.73;;;5.30;99.90;;;;;;5114175;27;20049;-67
2022/11/30 02:05:40;;;;;;;22.27;17.08;;;5.30;99.90;;;;;;5113982;27;20780;-68
2022/11/30 02:08:09;;;;;;;24.92;17.60;;;5.40;99.90;;;;;;5113955;27;20047;-68
2022/11/30 02:10:39;;;;;;;23.77;17.30;;;5.40;99.90;;;;;;5113643;27;20094;-66
2022/11/30 02:13:16;;;;;;;25.15;16.92;;;5.50;99.90;;;;;;5113814;27;20462;-67
2022/11/30 02:15:52;;;;;;;25.65;16.33;;;5.50;99.90;;;;;;5114097;27;20486;-66
2022/11/30 02:18:24;;;;;;;24.45;17.20;;;5.50;99.90;;;;;;5113301;27;20039;-66
2022/11/30 02:21:12;;;;;;;27.67;17.17;;;5.60;99.90;;;;;;5119563;27;20437;-67
2022/11/30 02:23:41;;;;;;;23.75;17.02;;;5.60;99.90;;;;;;5113457;27;20047;-67
2022/11/30 02:26:30;;;;;;;24.02;17.20;;;5.60;99.90;;;;;;5118804;27;20551;-67
2022/11/30 02:29:14;;;;;;;23.65;16.33;;;5.60;99.90;;;;;;5111446;27;20039;-66
2022/11/30 02:32:02;;;;;;;26.17;17.80;;;5.70;99.90;;;;;;5111967;27;20039;-67
2022/11/30 02:34:30;;;;;;;24.52;17.35;;;5.70;99.90;;;;;;5094365;27;20031;-68
2022/11/30 02:36:59;;;;;;;23.55;17.05;;;5.80;99.90;;;;;;5113280;27;20027;-67
2022/11/30 02:39:24;;;;;;;25.08;17.58;;;5.80;99.90;;;;;;5110539;27;20124;-66
2022/11/30 02:41:50;;;;;;;23.30;17.13;;;5.80;99.90;;;;;;5113245;27;20477;-68
2022/11/30 02:44:16;;;;;;;24.85;17.63;;;5.90;99.90;;;;;;5112122;27;20078;-67
2022/11/30 02:46:51;;;;;;;25.58;16.90;;;5.90;99.90;;;;;;5111715;27;20437;-67
2022/11/30 02:49:36;;;;;;;23.05;16.00;;;5.90;99.90;;;;;;5107703;28;20043;-66
2022/11/30 02:52:03;;;;;;;24.85;16.95;;;5.90;99.90;;;;;;5096158;27;20032;-66
2022/11/30 02:54:29;;;;;;;26.60;17.80;;;5.90;99.90;;;;;;5111603;28;20035;-66
2022/11/30 02:56:56;;;;;;;27.95;18.13;;;5.90;99.90;;;;;;5090504;28;20062;-66
2022/11/30 02:59:21;;;;;;;27.13;17.95;;;5.90;99.90;;;;;;5110680;28;20554;-67
2022/11/30 03:01:47;;;;;;;24.63;17.48;;;5.90;99.90;;;;;;5109796;28;20027;-66
2022/11/30 03:04:13;;;;;;;24.42;17.77;;;5.90;99.90;;;;;;5111896;28;20092;-68
2022/11/30 03:06:38;;;;;;;25.73;17.95;;;6.00;99.90;;;;;;5113105;28;20069;-67
2022/11/30 03:09:04;;;;;;;25.13;17.42;;;6.00;99.90;;;;;;5108293;28;20047;-67
2022/11/30 03:11:30;;;;;;;26.23;18.35;;;6.00;99.90;;;;;;5094069;28;20082;-68
2022/11/30 03:13:55;;;;;;;24.83;17.65;;;6.00;99.90;;;;;;5110037;28;20043;-67
2022/11/30 03:16:21;;;;;;;25.15;18.13;;;6.00;99.90;;;;;;5107581;28;20035;-66
2022/11/30 03:18:46;;;;;;;26.92;17.33;;;6.00;99.90;;;;;;5111170;28;20047;-68
2022/11/30 03:21:12;;;;;;;25.70;17.08;;;6.00;99.90;;;;;;5111888;28;20034;-67
2022/11/30 03:23:38;;;;;;;25.38;17.42;;;6.00;99.90;;;;;;5108524;28;20100;-68
2022/11/30 03:26:06;;;;;;;26.23;17.77;;;6.10;99.90;;;;;;5113138;28;20039;-67
2022/11/30 03:28:33;;;;;;;28.80;18.13;;;6.10;99.90;;;;;;5112308;28;20043;-67
2022/11/30 03:30:59;;;;;;;24.05;16.58;;;6.10;99.90;;;;;;5112782;28;20039;-67
2022/11/30 03:33:24;;;;;;;21.95;16.10;;;6.10;99.90;;;;;;5111929;28;20140;-66
2022/11/30 03:36:01;;;;;;;23.02;16.30;;;6.10;99.90;;;;;;5114177;28;20417;-66
2022/11/30 03:38:28;;;;;;;23.33;16.30;;;6.10;99.90;;;;;;5112578;28;20140;-67
2022/11/30 03:41:05;;;;;;;19.88;14.63;;;6.10;99.90;;;;;;5113177;28;20594;-66
2022/11/30 03:43:31;;;;;;;21.80;15.73;;;6.00;99.90;;;;;;5115959;28;20791;-67
2022/11/30 03:45:56;;;;;;;26.00;15.77;;;6.00;99.90;;;;;;5097438;27;20094;-67
2022/11/30 03:48:22;;;;;;;21.98;15.25;;;6.00;99.90;;;;;;5111312;27;20428;-67
2022/11/30 03:50:49;;;;;;;24.98;16.10;;;6.00;99.90;;;;;;5099434;27;20038;-66
2022/11/30 03:53:19;;;;;;;25.80;16.08;;;5.90;99.90;;;;;;5099576;27;20031;-67
2022/11/30 03:55:45;;;;;;;22.70;15.88;;;5.90;99.90;;;;;;5116420;27;20129;-68
2022/11/30 03:58:11;;;;;;;22.40;15.80;;;5.90;99.90;;;;;;5116132;27;20491;-68
2022/11/30 04:00:37;;;;;;;25.35;16.98;;;5.90;99.90;;;;;;5116519;27;20043;-67
2022/11/30 04:03:03;;;;;;;23.70;16.05;;;5.90;99.90;;;;;;5116530;27;20509;-67
2022/11/30 04:05:29;;;;;;;23.08;16.42;;;5.80;99.90;;;;;;5116745;27;20130;-67
2022/11/30 04:07:55;;;;;;;23.45;16.15;;;5.80;99.90;;;;;;5098579;27;20113;-67
2022/11/30 04:10:22;;;;;;;24.30;15.90;;;5.80;99.90;;;;;;5115914;27;20031;-67
2022/11/30 04:12:48;;;;;;;25.30;16.85;;;5.80;99.90;;;;;;5115986;27;20058;-67
2022/11/30 04:15:14;;;;;;;21.35;15.35;;;5.80;99.90;;;;;;5116072;27;20481;-67
2022/11/30 04:17:39;;;;;;;22.02;15.18;;;5.70;99.90;;;;;;5116171;27;20127;-67
2022/11/30 04:20:06;;;;;;;22.05;16.30;;;5.70;99.90;;;;;;5115478;27;20039;-67
2022/11/30 04:22:32;;;;;;;25.58;17.23;;;5.70;99.90;;;;;;5116543;27;20431;-67
2022/11/30 04:24:58;;;;;;;27.67;18.25;;;5.70;99.90;;;;;;5115863;27;20043;-67
2022/11/30 04:27:24;;;;;;;26.65;18.85;;;5.70;99.90;;;;;;5115298;27;20107;-69
2022/11/30 04:29:49;;;;;;;24.45;17.38;;;5.80;99.90;;;;;;5119279;27;20050;-66
2022/11/30 04:32:15;;;;;;;27.80;18.67;;;5.80;99.90;;;;;;5115684;27;20070;-66
2022/11/30 04:34:42;;;;;;;27.50;18.20;;;5.80;99.90;;;;;;5115662;27;20036;-68
2022/11/30 04:37:08;;;;;;;26.25;17.40;;;5.80;99.90;;;;;;5115405;27;20035;-67
2022/11/30 04:39:34;;;;;;;24.20;16.25;;;5.80;99.90;;;;;;5113171;27;20050;-67
2022/11/30 04:42:00;;;;;;;26.88;17.30;;;5.80;99.90;;;;;;5115242;27;20402;-66
2022/11/30 04:44:26;;;;;;;25.95;18.00;;;5.80;99.90;;;;;;5114280;27;20053;-67
2022/11/30 04:46:51;;;;;;;27.00;18.75;;;5.80;99.90;;;;;;5112570;27;20074;-67
2022/11/30 04:49:17;;;;;;;27.35;17.75;;;5.80;99.90;;;;;;5113482;27;20071;-68
2022/11/30 04:51:42;;;;;;;28.23;17.42;;;5.80;99.90;;;;;;5114926;27;20119;-67
2022/11/30 04:54:08;;;;;;;25.33;17.65;;;5.80;99.90;;;;;;5115184;27;20035;-67
2022/11/30 04:56:34;;;;;;;26.13;17.13;;;5.90;99.90;;;;;;5112043;27;20039;-67
2022/11/30 04:59:02;;;;;;;27.58;17.75;;;5.90;99.90;;;;;;5115258;27;20482;-66
2022/11/30 05:01:28;;;;;;;25.90;17.98;;;5.90;99.90;;;;;;5108496;27;20043;-68
2022/11/30 05:03:54;;;;;;;27.13;18.15;;;5.90;99.90;;;;;;5115424;27;20042;-68
2022/11/30 05:06:19;;;;;;;26.40;17.45;;;5.90;99.90;;;;;;5114940;27;20045;-69
2022/11/30 05:08:45;;;;;;;27.05;16.92;;;5.90;99.90;;;;;;5114719;27;20031;-68
2022/11/30 05:11:11;;;;;;;21.95;15.63;;;5.90;99.90;;;;;;5114708;27;20447;-66
2022/11/30 05:13:37;;;;;;;26.15;17.85;;;5.90;99.90;;;;;;5114529;27;20066;-68
2022/11/30 05:16:03;;;;;;;26.85;17.63;;;5.90;99.90;;;;;;5115246;27;20031;-66
2022/11/30 05:18:30;;;;;;;27.65;18.27;;;6.00;99.90;;;;;;5133102;27;20060;-67
2022/11/30 05:20:56;;;;;;;29.45;19.33;;;6.00;99.90;;;;;;5115013;27;20481;-68
2022/11/30 05:23:22;;;;;;;29.10;19.00;;;6.00;99.90;;;;;;5114478;27;20050;-66
2022/11/30 05:25:48;;;;;;;28.13;18.95;;;6.00;99.90;;;;;;5115068;27;20039;-67
2022/11/30 05:28:13;;;;;;;28.88;19.40;;;6.00;99.90;;;;;;5097889;27;20126;-68
2022/11/30 05:30:40;;;;;;;28.92;19.77;;;6.10;99.90;;;;;;5114382;27;20134;-68
2022/11/30 05:33:06;;;;;;;29.17;19.13;;;6.10;99.90;;;;;;5114185;27;20502;-66
2022/11/30 05:35:33;;;;;;;29.30;19.60;;;6.10;99.90;;;;;;5114749;27;20118;-66
2022/11/30 05:37:58;;;;;;;27.92;18.67;;;6.10;99.90;;;;;;5115015;27;20049;-67
2022/11/30 05:40:26;;;;;;;29.52;19.17;;;6.10;99.90;;;;;;5114570;27;20043;-68
2022/11/30 05:42:56;;;;;;;29.55;20.02;;;6.10;99.90;;;;;;5114346;27;20046;-67
2022/11/30 05:45:22;;;;;;;29.88;19.85;;;6.10;99.90;;;;;;5113651;27;20440;-68
2022/11/30 05:47:48;;;;;;;29.88;20.45;;;6.10;99.90;;;;;;5114345;27;20102;-66
2022/11/30 05:50:13;;;;;;;28.30;19.30;;;6.10;99.90;;;;;;5114014;27;20078;-66
2022/11/30 05:52:39;;;;;;;28.83;19.45;;;6.10;99.90;;;;;;5114200;27;20042;-68
2022/11/30 05:55:05;;;;;;;29.63;19.02;;;6.10;99.90;;;;;;5114037;27;20046;-67
2022/11/30 05:57:30;;;;;;;28.85;19.30;;;6.10;99.90;;;;;;5114253;27;20166;-68
2022/11/30 05:59:56;;;;;;;27.38;19.45;;;6.10;99.90;;;;;;5114321;27;20042;-67
2022/11/30 06:02:21;;;;;;;29.38;19.15;;;6.10;99.90;;;;;;5113197;27;20078;-67
2022/11/30 06:04:47;;;;;;;30.92;20.20;;;6.10;99.90;;;;;;5096685;27;20035;-67
2022/11/30 06:07:12;;;;;;;29.75;19.48;;;6.10;99.90;;;;;;5112217;27;20031;-67
2022/11/30 06:09:38;;;;;;;28.60;19.48;;;6.10;99.90;;;;;;5112944;27;20442;-67
2022/11/30 06:12:04;;;;;;;27.48;19.60;;;6.10;99.90;;;;;;5109583;27;20039;-68
2022/11/30 06:14:30;;;;;;;30.10;20.17;;;6.10;99.90;;;;;;5113782;27;20043;-67
2022/11/30 06:16:56;;;;;;;32.75;20.40;;;6.10;99.90;;;;;;5111681;27;20390;-67
2022/11/30 06:19:21;;;;;;;30.35;19.35;;;6.10;99.90;;;;;;5098239;28;20039;-69
2022/11/30 06:21:47;;;;;;;29.33;19.75;;;6.10;99.90;;;;;;5110088;28;20040;-70
2022/11/30 06:24:13;;;;;;;30.40;19.95;;;6.10;99.90;;;;;;5108003;28;20075;-68
2022/11/30 06:26:39;;;;;;;29.23;19.00;;;6.10;99.90;;;;;;5106942;28;20118;-68
2022/11/30 06:29:04;;;;;;;34.05;20.30;;;6.10;99.90;;;;;;5109632;28;20118;-68
2022/11/30 06:31:30;;;;;;;30.67;20.23;;;6.10;99.90;;;;;;5104872;28;20478;-69
2022/11/30 06:33:57;;;;;;;32.25;19.27;;;6.10;99.90;;;;;;5109489;28;20144;-70
2022/11/30 06:36:22;;;;;;;29.63;20.15;;;6.10;99.90;;;;;;5107565;28;20092;-67
2022/11/30 06:38:49;;;;;;;27.75;19.13;;;6.10;99.90;;;;;;5102555;28;20494;-70
2022/11/30 06:41:15;;;;;;;30.83;19.27;;;6.00;99.90;;;;;;5104994;28;20038;-68
2022/11/30 06:43:40;;;;;;;29.85;19.70;;;6.00;99.90;;;;;;5082809;28;20119;-69
2022/11/30 06:46:06;;;;;;;30.80;20.40;;;6.00;99.90;;;;;;5088409;28;20661;-67
2022/11/30 06:48:33;;;;;;;29.88;20.00;;;6.00;99.90;;;;;;5100034;28;20044;-70
2022/11/30 06:50:59;;;;;;;33.05;20.35;;;6.10;99.90;;;;;;5108139;28;20039;-68
2022/11/30 06:53:25;;;;;;;30.23;19.80;;;6.10;99.90;;;;;;5109127;28;20039;-69
2022/11/30 06:55:52;;;;;;;30.27;20.00;;;6.10;99.90;;;;;;5092085;28;20042;-68
2022/11/30 06:58:17;;;;;;;30.23;20.13;;;6.10;99.90;;;;;;5108268;28;20428;-69
2022/11/30 07:00:43;;;;;;;28.15;18.88;;;6.10;99.90;;;;;;5108379;28;20154;-68
2022/11/30 07:03:10;;;;;;;30.67;19.70;;;6.10;99.90;;;;;;5107903;28;20398;-67
2022/11/30 07:05:44;;;;;;;30.35;19.80;;;6.10;99.90;;;;;;5109196;28;20039;-69
2022/11/30 07:08:12;;;;;;;30.65;19.42;;;6.10;99.90;;;;;;5091151;28;20039;-69
2022/11/30 07:10:45;;;;;;;29.88;19.00;;;6.10;99.90;;;;;;5109434;28;20066;-68
2022/11/30 07:13:12;;;;;;;28.90;19.42;;;6.10;99.90;;;;;;5085884;28;20052;-68
2022/11/30 07:15:39;;;;;;;32.15;20.75;;;6.10;99.90;;;;;;5094883;28;20057;-68
2022/11/30 07:18:05;;;;;;;28.20;18.08;;;6.20;99.90;;;;;;5088834;28;20864;-67
2022/11/30 07:20:30;;;;;;;30.92;20.35;;;6.10;99.90;;;;;;5090925;28;20040;-68
2022/11/30 07:22:56;;;;;;;30.10;19.38;;;6.10;99.90;;;;;;5092790;28;20043;-68
2022/11/30 07:28:07;;;;;;;29.52;19.80;;;6.20;99.90;;;;;;5092619;28;20044;-70
2022/11/30 07:30:33;;;;;;;32.47;20.63;;;6.20;99.90;;;;;;5091309;28;20040;-70
2022/11/30 07:32:59;;;;;;;28.33;20.23;;;6.20;99.90;;;;;;5100198;28;20110;-67
2022/11/30 07:35:25;;;;;;;30.75;20.70;;;6.20;99.90;;;;;;5092263;28;20148;-68
2022/11/30 07:37:50;;;;;;;30.73;20.52;;;6.20;99.90;;;;;;5092702;28;20119;-67
2022/11/30 07:40:16;;;;;;;29.48;19.77;;;6.20;99.90;;;;;;5091935;28;20036;-69
2022/11/30 07:42:42;;;;;;;30.17;19.88;;;6.20;99.90;;;;;;5090303;28;20043;-69
2022/11/30 07:45:08;;;;;;;32.60;20.60;;;6.30;99.90;;;;;;5091395;28;20449;-68
2022/11/30 07:47:34;;;;;;;29.00;20.02;;;6.30;99.90;;;;;;5098728;28;20448;-68
2022/11/30 07:50:00;;;;;;;32.75;20.10;;;6.30;99.90;;;;;;5107600;28;20047;-69
2022/11/30 07:52:26;;;;;;;32.33;20.60;;;6.30;99.90;;;;;;5102798;28;20514;-69
2022/11/30 07:54:51;;;;;;;32.90;20.98;;;6.30;99.90;;;;;;5092478;28;20075;-70
2022/11/30 07:57:17;;;;;;;29.65;19.70;;;6.30;99.90;;;;;;5091973;28;20068;-68
2022/11/30 07:59:43;;;;;;;29.70;20.33;;;6.30;99.90;;;;;;5075323;28;20048;-69
2022/11/30 08:02:09;;;;;;;30.92;20.00;;;6.40;99.90;;;;;;5092440;28;20086;-69
2022/11/30 08:04:35;;;;;;;34.05;20.80;;;6.40;99.90;;;;;;5075078;28;20040;-69
2022/11/30 08:07:00;;;;;;;31.48;19.95;;;6.40;99.90;;;;;;5091978;28;20039;-68
2022/11/30 08:09:26;;;;;;;31.30;20.27;;;6.40;99.90;;;;;;5091635;28;20403;-69
2022/11/30 08:11:52;;;;;;;33.40;21.52;;;6.40;99.90;;;;;;5085788;28;20443;-69
2022/11/30 08:14:17;;;;;;;32.78;20.02;;;6.50;99.90;;;;;;5112406;28;20032;-68
2022/11/30 08:16:43;;;;;;;36.40;22.15;;;6.50;99.90;;;;;;5112473;28;20517;-69
2022/11/30 08:19:09;;;;;;;35.15;20.48;;;6.50;99.90;;;;;;5112184;28;20088;-70
2022/11/30 08:21:34;;;;;;;28.55;19.63;;;6.50;99.90;;;;;;5108333;28;20070;-68
2022/11/30 08:24:00;;;;;;;29.10;19.60;;;6.50;99.90;;;;;;5111990;28;20436;-68
2022/11/30 08:26:31;;;;;;;32.85;21.00;;;6.50;99.90;;;;;;5111558;28;20044;-69
2022/11/30 08:28:58;;;;;;;30.52;19.50;;;6.50;99.90;;;;;;5107002;28;20055;-68
2022/11/30 08:31:30;;;;;;;31.42;20.00;;;6.50;99.90;;;;;;5093640;28;20044;-70
2022/11/30 08:33:57;;;;;;;35.80;20.60;;;6.60;99.90;;;;;;5094886;28;20054;-67
2022/11/30 08:36:24;;;;;;;35.05;21.35;;;6.60;99.90;;;;;;5111709;28;20035;-69
2022/11/30 08:38:50;;;;;;;36.80;20.85;;;6.60;99.90;;;;;;5109329;28;20068;-67
2022/11/30 08:41:19;;;;;;;37.47;21.17;;;6.60;99.90;;;;;;5111908;28;20583;-70
2022/11/30 08:43:45;;;;;;;35.38;20.77;;;6.60;99.90;;;;;;5111251;28;20046;-69
2022/11/30 08:46:12;;;;;;;35.15;21.10;;;6.60;99.90;;;;;;5111886;28;20039;-70
2022/11/30 08:48:38;;;;;;;35.97;22.15;;;6.60;99.90;;;;;;5111160;28;20555;-68
2022/11/30 08:51:08;;;;;;;35.08;20.33;;;6.70;99.90;;;;;;5092557;28;20138;-69
2022/11/30 08:53:34;;;;;;;36.25;20.83;;;6.70;99.90;;;;;;5110412;28;20382;-68
2022/11/30 08:56:02;;;;;;;37.30;20.52;;;6.70;99.90;;;;;;5106149;28;20035;-70
2022/11/30 08:58:33;;;;;;;35.78;21.50;;;6.70;99.90;;;;;;5110553;28;20177;-69
2022/11/30 09:01:19;;;;;;;36.00;21.08;;;6.70;99.90;;;;;;5110549;28;20065;-70
2022/11/30 09:03:46;;;;;;;33.85;20.13;;;6.70;99.90;;;;;;5111492;28;20043;-67
2022/11/30 09:06:14;;;;;;;33.22;20.27;;;6.80;99.90;;;;;;5101972;28;20047;-67
2022/11/30 09:08:42;;;;;;;33.83;19.55;;;6.80;99.90;;;;;;5110507;28;20048;-70
2022/11/30 09:11:12;;;;;;;33.50;19.23;;;6.90;99.90;;;;;;5109054;28;20108;-70
2022/11/30 09:13:38;;;;;;;32.78;18.50;;;6.90;99.90;;;;;;5110659;28;20062;-69
2022/11/30 09:16:04;;;;;;;31.90;18.30;;;6.90;99.90;;;;;;5110311;28;20090;-70
2022/11/30 09:18:30;;;;;;;33.85;19.20;;;6.90;99.90;;;;;;5110763;28;20043;-69
2022/11/30 09:21:00;;;;;;;29.45;16.85;;;7.00;99.90;;;;;;5110449;28;20031;-69
2022/11/30 09:23:26;;;;;;;31.58;16.65;;;7.00;99.90;;;;;;5110904;28;20539;-69
2022/11/30 09:26:00;;;;;;;28.88;16.00;;;6.90;99.90;;;;;;5110046;28;20070;-69
2022/11/30 09:28:26;;;;;;;27.38;15.77;;;6.90;99.90;;;;;;5108757;28;20046;-68
2022/11/30 09:30:52;;;;;;;24.90;14.93;;;6.90;99.90;;;;;;5110276;28;20031;-69
2022/11/30 09:33:19;;;;;;;23.45;14.88;;;6.90;99.90;;;;;;5110853;28;20466;-69
2022/11/30 09:35:53;;;;;;;24.10;15.10;;;7.00;99.90;;;;;;5110759;28;20501;-67
2022/11/30 09:38:18;;;;;;;25.45;15.60;;;7.00;99.90;;;;;;5108718;28;20104;-68
2022/11/30 09:40:49;;;;;;;21.30;14.60;;;7.00;99.90;;;;;;5093580;28;20051;-69
2022/11/30 09:43:50;;;;;;;24.80;14.18;;;7.00;99.90;;;;;;5109535;28;20085;-69
2022/11/30 09:46:18;;;;;;;21.50;13.95;;;7.10;99.90;;;;;;5110178;28;20035;-68
2022/11/30 09:48:59;;;;;;;24.55;14.88;;;7.10;99.90;;;;;;5109189;28;20108;-68
2022/11/30 09:51:30;;;;;;;24.65;15.23;;;7.10;99.90;;;;;;5109885;28;20172;-68
2022/11/30 09:54:05;;;;;;;23.63;14.40;;;7.20;99.90;;;;;;5110016;28;20039;-68
2022/11/30 09:56:36;;;;;;;21.83;14.73;;;7.20;99.90;;;;;;5110386;28;20051;-67
2022/11/30 09:59:12;;;;;;;22.30;14.63;;;7.20;99.90;;;;;;5107912;28;20039;-68
2022/11/30 10:01:37;;;;;;;20.85;14.73;;;7.20;99.90;;;;;;5109881;28;20047;-69
2022/11/30 10:04:03;;;;;;;19.90;13.70;;;7.20;99.90;;;;;;5109555;28;20043;-69
2022/11/30 10:06:40;;;;;;;19.98;13.75;;;7.20;99.90;;;;;;5092624;28;20054;-68
2022/11/30 10:09:15;;;;;;;18.88;12.70;;;7.20;99.90;;;;;;5109759;28;20122;-69
2022/11/30 10:11:58;;;;;;;17.85;12.65;;;7.30;99.90;;;;;;5092369;28;20402;-68
2022/11/30 10:14:30;;;;;;;19.50;13.55;;;7.30;99.90;;;;;;5109109;28;20050;-68
2022/11/30 10:17:21;;;;;;;19.10;12.50;;;7.30;99.90;;;;;;5110023;28;20036;-68
2022/11/30 10:20:07;;;;;;;18.60;12.57;;;7.30;99.90;;;;;;5110034;28;20106;-69
2022/11/30 10:22:57;;;;;;;16.55;11.50;;;7.20;99.90;;;;;;5109445;28;20043;-69
2022/11/30 10:25:37;;;;;;;16.40;11.38;;;7.30;99.90;;;;;;5109971;28;20517;-68
2022/11/30 10:28:28;;;;;;;15.63;12.00;;;7.30;99.90;;;;;;5109859;28;20050;-68
2022/11/30 10:30:54;;;;;;;15.93;12.07;;;7.30;99.90;;;;;;5109822;28;20397;-68
2022/11/30 10:33:37;;;;;;;16.70;12.40;;;7.20;99.90;;;;;;5109753;28;20038;-68
2022/11/30 10:36:17;;;;;;;16.63;12.05;;;7.20;99.90;;;;;;5110350;28;20544;-69
2022/11/30 10:38:48;;;;;;;17.90;12.32;;;7.20;99.90;;;;;;5110877;28;20043;-68
2022/11/30 10:41:18;;;;;;;17.35;12.20;;;7.20;99.90;;;;;;5110053;28;20054;-68
2022/11/30 10:43:55;;;;;;;19.00;13.18;;;7.20;99.90;;;;;;5109124;28;20335;-68
2022/11/30 10:46:28;;;;;;;16.35;12.25;;;7.20;99.90;;;;;;5109762;28;20105;-69
2022/11/30 10:48:58;;;;;;;17.73;12.50;;;7.20;99.90;;;;;;5109473;28;20032;-68
2022/11/30 10:51:25;;;;;;;16.48;11.65;;;7.20;99.90;;;;;;5092716;28;20070;-68
2022/11/30 10:53:51;;;;;;;15.43;12.15;;;7.30;99.90;;;;;;5109668;28;20040;-68
2022/11/30 10:56:16;;;;;;;15.50;11.75;;;7.30;99.90;;;;;;5109130;28;20046;-69
2022/11/30 10:59:02;;;;;;;17.25;12.30;;;7.30;99.90;;;;;;5108969;28;20047;-68
2022/11/30 11:01:39;;;;;;;15.80;11.93;;;7.30;99.90;;;;;;5109518;28;20401;-69
2022/11/30 11:04:21;;;;;;;18.30;12.68;;;7.30;99.90;;;;;;5109518;28;20035;-69
2022/11/30 11:06:56;;;;;;;16.20;12.48;;;7.30;99.90;;;;;;5091931;28;20036;-69
2022/11/30 11:09:33;;;;;;;16.35;12.55;;;7.40;99.90;;;;;;5109338;28;20390;-69
2022/11/30 11:12:04;;;;;;;14.10;11.13;;;7.40;99.90;;;;;;5109083;28;20047;-70
2022/11/30 11:14:30;;;;;;;14.82;11.77;;;7.40;99.90;;;;;;5091922;28;20486;-70
2022/11/30 11:17:01;;;;;;;16.92;12.23;;;7.50;99.90;;;;;;5098853;28;20061;-69
2022/11/30 11:19:35;;;;;;;16.58;12.85;;;7.50;99.90;;;;;;5092401;28;20102;-69
2022/11/30 11:22:22;;;;;;;18.02;13.52;;;7.50;99.90;;;;;;5098949;28;20036;-69
2022/11/30 11:25:09;;;;;;;17.73;13.40;;;7.50;99.90;;;;;;5012209;28;20084;-69
2022/11/30 11:27:34;;;;;;;17.63;13.27;;;7.40;99.90;;;;;;4992376;28;20057;-69
2022/11/30 11:30:03;;;;;;;18.95;13.82;;;7.40;99.90;;;;;;5013637;28;20052;-68
2022/11/30 11:32:29;;;;;;;17.13;13.05;;;7.40;99.90;;;;;;5015135;28;20064;-69
2022/11/30 11:34:56;;;;;;;18.48;13.75;;;7.40;99.90;;;;;;5011168;28;20111;-69
2022/11/30 11:37:32;;;;;;;17.38;13.18;;;7.40;99.90;;;;;;5027679;28;20081;-68
2022/11/30 11:39:59;;;;;;;18.27;13.25;;;7.40;99.90;;;;;;5009779;28;20037;-68
2022/11/30 11:42:28;;;;;;;18.67;14.07;;;7.40;99.90;;;;;;5011454;28;20056;-68
2022/11/30 11:44:56;;;;;;;18.95;13.60;;;7.40;99.90;;;;;;5011274;28;20052;-68
2022/11/30 11:47:44;;;;;;;22.67;14.20;;;7.40;99.90;;;;;;4995082;28;20113;-69
2022/11/30 11:50:24;;;;;;;19.15;14.13;;;7.30;99.90;;;;;;5009673;28;20054;-70
2022/11/30 11:53:13;;;;;;;20.65;14.77;;;7.30;99.90;;;;;;5029516;28;20045;-69
2022/11/30 11:55:41;;;;;;;21.60;14.95;;;7.30;99.90;;;;;;5022458;28;20046;-69
2022/11/30 11:58:15;;;;;;;20.75;14.35;;;7.30;99.90;;;;;;5010704;28;20611;-70
2022/11/30 12:00:41;;;;;;;19.25;14.57;;;7.30;99.90;;;;;;4992099;28;20069;-68
2022/11/30 12:03:35;;;;;;;21.70;15.15;;;7.40;99.90;;;;;;5074536;28;20056;-68
2022/11/30 12:06:10;;;;;;;21.15;14.15;;;7.40;99.90;;;;;;5110223;28;20039;-68
2022/11/30 12:08:47;;;;;;;23.23;16.17;;;7.40;99.90;;;;;;5108300;28;20118;-68
2022/11/30 12:11:24;;;;;;;21.15;14.85;;;7.40;99.90;;;;;;5085720;28;20039;-70
2022/11/30 12:13:50;;;;;;;21.85;15.77;;;7.40;99.90;;;;;;5100105;28;20050;-69
2022/11/30 12:16:18;;;;;;;24.48;16.00;;;7.50;99.90;;;;;;5112434;28;20028;-70
2022/11/30 12:18:47;;;;;;;21.60;15.93;;;7.40;99.90;;;;;;5079578;28;20127;-69
2022/11/30 12:21:20;;;;;;;24.33;16.40;;;7.40;99.90;;;;;;5092283;28;20047;-69
2022/11/30 12:23:56;;;;;;;22.00;15.30;;;7.40;99.90;;;;;;5091662;28;20050;-69
2022/11/30 12:26:33;;;;;;;22.95;16.17;;;7.40;99.90;;;;;;5092071;28;20044;-68
2022/11/30 12:29:21;;;;;;;23.85;16.35;;;7.40;99.90;;;;;;5087719;28;20044;-69
2022/11/30 12:32:01;;;;;;;24.83;16.25;;;7.40;99.90;;;;;;5080277;28;20403;-70
2022/11/30 12:35:01;;;;;;;22.73;16.00;;;7.40;99.90;;;;;;5104273;28;20031;-68
2022/11/30 12:37:30;;;;;;;25.30;16.52;;;7.40;99.90;;;;;;5088314;28;20445;-70
2022/11/30 12:40:22;;;;;;;25.13;16.30;;;7.40;99.90;;;;;;5087373;28;20032;-69
2022/11/30 12:43:08;;;;;;;24.08;16.85;;;7.40;99.90;;;;;;5086009;28;20508;-70
2022/11/30 12:45:39;;;;;;;24.40;16.23;;;7.40;99.90;;;;;;5092829;28;20075;-69
2022/11/30 12:48:31;;;;;;;24.27;16.13;;;7.40;99.90;;;;;;5090878;28;20086;-68
2022/11/30 12:51:32;;;;;;;25.95;16.38;;;7.50;99.90;;;;;;5092012;28;20035;-70